sensor_id;sensor_type;location;lat;lon;timestamp;P1;durP1;ratioP1;P2;durP2;ratioP2
26435;SDS011;15351;52.408;16.826;2023-02-24T00:01:11;40.70;;;31.60;;
26435;SDS011;15351;52.408;16.826;2023-02-24T00:03:42;41.60;;;29.50;;
26435;SDS011;15351;52.408;16.826;2023-02-24T00:06:11;41.50;;;28.60;;
26435;SDS011;15351;52.408;16.826;2023-02-24T00:08:41;41.70;;;28.20;;
26435;SDS011;15351;52.408;16.826;2023-02-24T00:11:09;37.10;;;26.40;;
26435;SDS011;15351;52.408;16.826;2023-02-24T00:13:43;37.10;;;25.80;;
26435;SDS011;15351;52.408;16.826;2023-02-24T00:16:15;32.60;;;26.20;;
26435;SDS011;15351;52.408;16.826;2023-02-24T00:18:48;36.90;;;27.60;;
26435;SDS011;15351;52.408;16.826;2023-02-24T00:21:17;36.90;;;25.90;;
26435;SDS011;15351;52.408;16.826;2023-02-24T00:23:45;36.10;;;25.60;;
26435;SDS011;15351;52.408;16.826;2023-02-24T00:26:15;36.40;;;25.10;;
26435;SDS011;15351;52.408;16.826;2023-02-24T00:28:43;33.70;;;26.40;;
26435;SDS011;15351;52.408;16.826;2023-02-24T00:31:14;35.30;;;25.60;;
26435;SDS011;15351;52.408;16.826;2023-02-24T00:33:45;35.50;;;25.00;;
26435;SDS011;15351;52.408;16.826;2023-02-24T00:36:18;34.70;;;24.70;;
26435;SDS011;15351;52.408;16.826;2023-02-24T00:38:53;34.20;;;23.80;;
26435;SDS011;15351;52.408;16.826;2023-02-24T00:41:25;29.60;;;23.60;;
26435;SDS011;15351;52.408;16.826;2023-02-24T00:44:04;30.20;;;25.20;;
26435;SDS011;15351;52.408;16.826;2023-02-24T00:46:38;34.40;;;24.80;;
26435;SDS011;15351;52.408;16.826;2023-02-24T00:49:29;30.00;;;23.00;;
26435;SDS011;15351;52.408;16.826;2023-02-24T00:51:57;32.70;;;23.50;;
26435;SDS011;15351;52.408;16.826;2023-02-24T00:54:25;28.40;;;23.50;;
26435;SDS011;15351;52.408;16.826;2023-02-24T00:56:54;30.90;;;25.00;;
26435;SDS011;15351;52.408;16.826;2023-02-24T00:59:23;31.50;;;23.30;;
26435;SDS011;15351;52.408;16.826;2023-02-24T01:01:53;31.90;;;22.90;;
26435;SDS011;15351;52.408;16.826;2023-02-24T01:04:25;31.20;;;23.00;;
26435;SDS011;15351;52.408;16.826;2023-02-24T01:06:55;29.30;;;22.10;;
26435;SDS011;15351;52.408;16.826;2023-02-24T01:09:29;27.20;;;22.90;;
26435;SDS011;15351;52.408;16.826;2023-02-24T01:12:02;31.80;;;23.50;;
26435;SDS011;15351;52.408;16.826;2023-02-24T01:14:52;32.40;;;23.20;;
26435;SDS011;15351;52.408;16.826;2023-02-24T01:17:21;29.10;;;22.00;;
26435;SDS011;15351;52.408;16.826;2023-02-24T01:19:51;30.70;;;22.80;;
26435;SDS011;15351;52.408;16.826;2023-02-24T01:22:26;31.10;;;23.00;;
26435;SDS011;15351;52.408;16.826;2023-02-24T01:24:53;30.00;;;22.50;;
26435;SDS011;15351;52.408;16.826;2023-02-24T01:27:20;29.80;;;23.60;;
26435;SDS011;15351;52.408;16.826;2023-02-24T01:29:47;31.90;;;23.60;;
26435;SDS011;15351;52.408;16.826;2023-02-24T01:32:19;31.30;;;23.10;;
26435;SDS011;15351;52.408;16.826;2023-02-24T01:35:08;31.30;;;23.40;;
26435;SDS011;15351;52.408;16.826;2023-02-24T01:37:39;30.30;;;22.80;;
26435;SDS011;15351;52.408;16.826;2023-02-24T01:40:09;32.10;;;22.50;;
26435;SDS011;15351;52.408;16.826;2023-02-24T01:42:47;28.40;;;23.10;;
26435;SDS011;15351;52.408;16.826;2023-02-24T01:45:21;28.80;;;23.70;;
26435;SDS011;15351;52.408;16.826;2023-02-24T01:47:51;30.60;;;22.50;;
26435;SDS011;15351;52.408;16.826;2023-02-24T01:50:23;30.30;;;22.60;;
26435;SDS011;15351;52.408;16.826;2023-02-24T01:52:54;29.50;;;21.00;;
26435;SDS011;15351;52.408;16.826;2023-02-24T01:55:32;29.80;;;21.10;;
26435;SDS011;15351;52.408;16.826;2023-02-24T01:58:26;28.00;;;20.00;;
26435;SDS011;15351;52.408;16.826;2023-02-24T02:01:05;27.50;;;21.90;;
26435;SDS011;15351;52.408;16.826;2023-02-24T02:03:37;30.10;;;21.80;;
26435;SDS011;15351;52.408;16.826;2023-02-24T02:06:08;29.30;;;20.90;;
26435;SDS011;15351;52.408;16.826;2023-02-24T02:08:41;28.80;;;20.20;;
26435;SDS011;15351;52.408;16.826;2023-02-24T02:11:12;28.70;;;20.60;;
26435;SDS011;15351;52.408;16.826;2023-02-24T02:13:47;27.80;;;20.40;;
26435;SDS011;15351;52.408;16.826;2023-02-24T02:16:38;25.70;;;20.70;;
26435;SDS011;15351;52.408;16.826;2023-02-24T02:25:19;25.70;;;18.90;;
26435;SDS011;15351;52.408;16.826;2023-02-24T02:39:26;27.20;;;18.80;;
26435;SDS011;15351;52.408;16.826;2023-02-24T02:44:46;25.90;;;19.70;;
26435;SDS011;15351;52.408;16.826;2023-02-24T02:47:43;27.60;;;17.90;;
26435;SDS011;15351;52.408;16.826;2023-02-24T02:50:26;26.20;;;17.40;;
26435;SDS011;15351;52.408;16.826;2023-02-24T02:53:07;23.40;;;17.30;;
26435;SDS011;15351;52.408;16.826;2023-02-24T02:55:45;22.50;;;17.10;;
26435;SDS011;15351;52.408;16.826;2023-02-24T02:58:22;25.50;;;15.70;;
26435;SDS011;15351;52.408;16.826;2023-02-24T03:00:59;23.50;;;15.40;;
26435;SDS011;15351;52.408;16.826;2023-02-24T03:03:31;23.40;;;15.20;;
26435;SDS011;15351;52.408;16.826;2023-02-24T03:06:12;22.60;;;15.90;;
26435;SDS011;15351;52.408;16.826;2023-02-24T03:08:47;23.10;;;16.10;;
26435;SDS011;15351;52.408;16.826;2023-02-24T03:11:24;25.20;;;15.40;;
26435;SDS011;15351;52.408;16.826;2023-02-24T03:13:53;26.30;;;15.70;;
26435;SDS011;15351;52.408;16.826;2023-02-24T03:16:24;21.40;;;15.10;;
26435;SDS011;15351;52.408;16.826;2023-02-24T03:18:57;20.80;;;15.40;;
26435;SDS011;15351;52.408;16.826;2023-02-24T03:21:31;24.50;;;17.10;;
26435;SDS011;15351;52.408;16.826;2023-02-24T03:24:07;24.90;;;15.50;;
26435;SDS011;15351;52.408;16.826;2023-02-24T03:26:42;24.60;;;15.00;;
26435;SDS011;15351;52.408;16.826;2023-02-24T03:29:23;23.30;;;16.60;;
26435;SDS011;15351;52.408;16.826;2023-02-24T03:32:01;24.50;;;16.50;;
26435;SDS011;15351;52.408;16.826;2023-02-24T03:37:46;24.90;;;15.30;;
26435;SDS011;15351;52.408;16.826;2023-02-24T03:40:24;23.30;;;15.20;;
26435;SDS011;15351;52.408;16.826;2023-02-24T03:43:06;26.10;;;17.70;;
26435;SDS011;15351;52.408;16.826;2023-02-24T03:45:43;24.00;;;17.20;;
26435;SDS011;15351;52.408;16.826;2023-02-24T03:48:12;28.50;;;16.90;;
26435;SDS011;15351;52.408;16.826;2023-02-24T03:50:42;26.20;;;16.10;;
26435;SDS011;15351;52.408;16.826;2023-02-24T04:06:00;27.70;;;16.90;;
26435;SDS011;15351;52.408;16.826;2023-02-24T04:08:36;27.50;;;18.50;;
26435;SDS011;15351;52.408;16.826;2023-02-24T04:11:27;31.70;;;19.00;;
26435;SDS011;15351;52.408;16.826;2023-02-24T04:14:03;28.90;;;17.90;;
26435;SDS011;15351;52.408;16.826;2023-02-24T04:16:42;32.90;;;19.00;;
26435;SDS011;15351;52.408;16.826;2023-02-24T04:19:22;28.90;;;19.30;;
26435;SDS011;15351;52.408;16.826;2023-02-24T04:21:56;31.60;;;20.50;;
26435;SDS011;15351;52.408;16.826;2023-02-24T04:24:27;31.40;;;19.00;;
26435;SDS011;15351;52.408;16.826;2023-02-24T04:26:58;29.90;;;18.50;;
26435;SDS011;15351;52.408;16.826;2023-02-24T04:29:32;31.10;;;18.80;;
26435;SDS011;15351;52.408;16.826;2023-02-24T04:32:07;32.10;;;18.80;;
26435;SDS011;15351;52.408;16.826;2023-02-24T04:34:38;30.10;;;19.50;;
26435;SDS011;15351;52.408;16.826;2023-02-24T04:37:06;33.30;;;19.30;;
26435;SDS011;15351;52.408;16.826;2023-02-24T04:39:35;34.50;;;19.20;;
26435;SDS011;15351;52.408;16.826;2023-02-24T04:42:08;31.30;;;18.30;;
26435;SDS011;15351;52.408;16.826;2023-02-24T04:44:36;33.20;;;19.10;;
26435;SDS011;15351;52.408;16.826;2023-02-24T04:47:04;30.60;;;20.20;;
26435;SDS011;15351;52.408;16.826;2023-02-24T04:49:34;33.90;;;21.40;;
26435;SDS011;15351;52.408;16.826;2023-02-24T04:52:02;33.70;;;19.60;;
26435;SDS011;15351;52.408;16.826;2023-02-24T04:54:31;36.70;;;19.60;;
26435;SDS011;15351;52.408;16.826;2023-02-24T04:57:00;33.70;;;19.30;;
26435;SDS011;15351;52.408;16.826;2023-02-24T04:59:28;34.50;;;18.80;;
26435;SDS011;15351;52.408;16.826;2023-02-24T05:01:55;32.60;;;20.90;;
26435;SDS011;15351;52.408;16.826;2023-02-24T05:04:27;32.10;;;21.10;;
26435;SDS011;15351;52.408;16.826;2023-02-24T05:06:57;36.30;;;20.10;;
26435;SDS011;15351;52.408;16.826;2023-02-24T05:09:26;35.30;;;20.20;;
26435;SDS011;15351;52.408;16.826;2023-02-24T05:11:55;34.30;;;19.50;;
26435;SDS011;15351;52.408;16.826;2023-02-24T05:14:24;32.70;;;21.40;;
26435;SDS011;15351;52.408;16.826;2023-02-24T05:16:53;34.20;;;21.80;;
26435;SDS011;15351;52.408;16.826;2023-02-24T05:19:26;35.10;;;19.70;;
26435;SDS011;15351;52.408;16.826;2023-02-24T05:22:12;34.60;;;18.80;;
26435;SDS011;15351;52.408;16.826;2023-02-24T05:24:43;34.10;;;18.70;;
26435;SDS011;15351;52.408;16.826;2023-02-24T05:27:13;30.40;;;17.00;;
26435;SDS011;15351;52.408;16.826;2023-02-24T05:29:44;29.00;;;18.30;;
26435;SDS011;15351;52.408;16.826;2023-02-24T05:32:13;30.70;;;17.90;;
26435;SDS011;15351;52.408;16.826;2023-02-24T05:34:45;31.00;;;17.80;;
26435;SDS011;15351;52.408;16.826;2023-02-24T05:37:35;35.90;;;18.60;;
26435;SDS011;15351;52.408;16.826;2023-02-24T05:40:04;34.80;;;18.10;;
26435;SDS011;15351;52.408;16.826;2023-02-24T05:42:38;30.20;;;18.70;;
26435;SDS011;15351;52.408;16.826;2023-02-24T05:45:07;29.90;;;18.60;;
26435;SDS011;15351;52.408;16.826;2023-02-24T05:47:37;32.10;;;16.80;;
26435;SDS011;15351;52.408;16.826;2023-02-24T05:50:06;33.00;;;16.80;;
26435;SDS011;15351;52.408;16.826;2023-02-24T05:52:36;28.10;;;15.80;;
26435;SDS011;15351;52.408;16.826;2023-02-24T05:55:04;28.70;;;15.80;;
26435;SDS011;15351;52.408;16.826;2023-02-24T05:57:32;29.00;;;17.50;;
26435;SDS011;15351;52.408;16.826;2023-02-24T06:00:03;28.60;;;17.00;;
26435;SDS011;15351;52.408;16.826;2023-02-24T06:02:46;28.60;;;15.60;;
26435;SDS011;15351;52.408;16.826;2023-02-24T06:05:17;29.70;;;15.80;;
26435;SDS011;15351;52.408;16.826;2023-02-24T06:07:55;26.10;;;14.80;;
26435;SDS011;15351;52.408;16.826;2023-02-24T06:10:32;26.60;;;16.30;;
26435;SDS011;15351;52.408;16.826;2023-02-24T06:13:07;28.00;;;17.70;;
26435;SDS011;15351;52.408;16.826;2023-02-24T06:15:36;33.00;;;17.10;;
26435;SDS011;15351;52.408;16.826;2023-02-24T06:18:03;30.00;;;14.90;;
26435;SDS011;15351;52.408;16.826;2023-02-24T06:20:32;29.20;;;14.10;;
26435;SDS011;15351;52.408;16.826;2023-02-24T06:23:04;29.10;;;15.10;;
26435;SDS011;15351;52.408;16.826;2023-02-24T06:25:36;26.20;;;15.50;;
26435;SDS011;15351;52.408;16.826;2023-02-24T06:28:05;28.90;;;15.80;;
26435;SDS011;15351;52.408;16.826;2023-02-24T06:30:44;33.70;;;16.70;;
26435;SDS011;15351;52.408;16.826;2023-02-24T06:33:11;28.20;;;13.80;;
26435;SDS011;15351;52.408;16.826;2023-02-24T06:35:39;27.70;;;13.60;;
26435;SDS011;15351;52.408;16.826;2023-02-24T06:38:08;23.70;;;14.30;;
26435;SDS011;15351;52.408;16.826;2023-02-24T06:40:43;26.70;;;14.80;;
26435;SDS011;15351;52.408;16.826;2023-02-24T06:43:12;26.50;;;13.70;;
26435;SDS011;15351;52.408;16.826;2023-02-24T06:45:39;28.60;;;13.30;;
26435;SDS011;15351;52.408;16.826;2023-02-24T06:48:07;25.60;;;12.30;;
26435;SDS011;15351;52.408;16.826;2023-02-24T06:50:34;17.10;;;8.70;;
26435;SDS011;15351;52.408;16.826;2023-02-24T06:53:02;9.80;;;5.30;;
26435;SDS011;15351;52.408;16.826;2023-02-24T06:55:35;7.70;;;4.90;;
26435;SDS011;15351;52.408;16.826;2023-02-24T06:58:02;7.50;;;4.40;;
26435;SDS011;15351;52.408;16.826;2023-02-24T07:00:31;6.70;;;4.40;;
26435;SDS011;15351;52.408;16.826;2023-02-24T07:03:07;6.30;;;4.40;;
26435;SDS011;15351;52.408;16.826;2023-02-24T07:08:17;6.30;;;4.10;;
26435;SDS011;15351;52.408;16.826;2023-02-24T07:11:00;6.40;;;3.70;;
26435;SDS011;15351;52.408;16.826;2023-02-24T07:13:27;5.20;;;3.10;;
26435;SDS011;15351;52.408;16.826;2023-02-24T07:15:57;4.70;;;3.30;;
26435;SDS011;15351;52.408;16.826;2023-02-24T07:18:33;5.70;;;3.30;;
26435;SDS011;15351;52.408;16.826;2023-02-24T07:21:24;7.10;;;3.60;;
26435;SDS011;15351;52.408;16.826;2023-02-24T07:23:55;5.20;;;3.30;;
26435;SDS011;15351;52.408;16.826;2023-02-24T07:26:25;4.90;;;3.20;;
26435;SDS011;15351;52.408;16.826;2023-02-24T07:28:59;5.10;;;3.60;;
26435;SDS011;15351;52.408;16.826;2023-02-24T07:31:29;5.00;;;3.60;;
26435;SDS011;15351;52.408;16.826;2023-02-24T07:34:03;4.90;;;3.10;;
26435;SDS011;15351;52.408;16.826;2023-02-24T07:36:32;6.70;;;3.30;;
26435;SDS011;15351;52.408;16.826;2023-02-24T07:39:15;4.70;;;3.30;;
26435;SDS011;15351;52.408;16.826;2023-02-24T07:41:45;5.50;;;3.70;;
26435;SDS011;15351;52.408;16.826;2023-02-24T07:44:18;6.20;;;3.50;;
26435;SDS011;15351;52.408;16.826;2023-02-24T07:46:50;6.70;;;4.30;;
26435;SDS011;15351;52.408;16.826;2023-02-24T07:49:26;7.20;;;4.30;;
26435;SDS011;15351;52.408;16.826;2023-02-24T07:51:56;5.80;;;4.00;;
26435;SDS011;15351;52.408;16.826;2023-02-24T07:54:24;8.10;;;4.60;;
26435;SDS011;15351;52.408;16.826;2023-02-24T07:57:00;10.70;;;5.00;;
26435;SDS011;15351;52.408;16.826;2023-02-24T07:59:29;9.00;;;4.90;;
26435;SDS011;15351;52.408;16.826;2023-02-24T08:01:59;8.70;;;4.50;;
26435;SDS011;15351;52.408;16.826;2023-02-24T08:04:31;11.50;;;5.50;;
26435;SDS011;15351;52.408;16.826;2023-02-24T08:07:00;11.60;;;5.40;;
26435;SDS011;15351;52.408;16.826;2023-02-24T08:09:32;10.70;;;4.40;;
26435;SDS011;15351;52.408;16.826;2023-02-24T08:12:42;9.70;;;4.60;;
26435;SDS011;15351;52.408;16.826;2023-02-24T08:15:10;8.20;;;3.90;;
26435;SDS011;15351;52.408;16.826;2023-02-24T08:17:53;10.10;;;4.20;;
26435;SDS011;15351;52.408;16.826;2023-02-24T08:20:40;9.30;;;3.80;;
26435;SDS011;15351;52.408;16.826;2023-02-24T08:23:29;9.30;;;3.40;;
26435;SDS011;15351;52.408;16.826;2023-02-24T08:26:01;9.10;;;3.20;;
26435;SDS011;15351;52.408;16.826;2023-02-24T08:28:29;10.60;;;3.60;;
26435;SDS011;15351;52.408;16.826;2023-02-24T08:31:03;9.30;;;3.40;;
26435;SDS011;15351;52.408;16.826;2023-02-24T08:33:33;12.70;;;4.60;;
26435;SDS011;15351;52.408;16.826;2023-02-24T08:36:17;12.10;;;4.30;;
26435;SDS011;15351;52.408;16.826;2023-02-24T08:38:49;12.80;;;4.00;;
26435;SDS011;15351;52.408;16.826;2023-02-24T08:41:18;13.70;;;4.10;;
26435;SDS011;15351;52.408;16.826;2023-02-24T08:43:56;14.40;;;4.90;;
26435;SDS011;15351;52.408;16.826;2023-02-24T08:46:27;15.40;;;4.70;;
26435;SDS011;15351;52.408;16.826;2023-02-24T08:49:04;13.80;;;3.90;;
26435;SDS011;15351;52.408;16.826;2023-02-24T08:51:42;12.20;;;3.90;;
26435;SDS011;15351;52.408;16.826;2023-02-24T08:54:16;14.30;;;4.30;;
26435;SDS011;15351;52.408;16.826;2023-02-24T08:57:15;12.40;;;4.30;;
26435;SDS011;15351;52.408;16.826;2023-02-24T09:00:00;10.20;;;3.20;;
26435;SDS011;15351;52.408;16.826;2023-02-24T09:02:33;10.40;;;3.80;;
26435;SDS011;15351;52.408;16.826;2023-02-24T09:05:06;12.70;;;3.80;;
26435;SDS011;15351;52.408;16.826;2023-02-24T09:07:38;11.70;;;4.00;;
26435;SDS011;15351;52.408;16.826;2023-02-24T09:10:12;13.30;;;3.70;;
26435;SDS011;15351;52.408;16.826;2023-02-24T09:12:44;11.70;;;3.40;;
26435;SDS011;15351;52.408;16.826;2023-02-24T09:15:15;11.40;;;2.90;;
26435;SDS011;15351;52.408;16.826;2023-02-24T09:17:44;11.40;;;3.40;;
26435;SDS011;15351;52.408;16.826;2023-02-24T09:20:15;11.60;;;4.10;;
26435;SDS011;15351;52.408;16.826;2023-02-24T09:23:15;15.50;;;4.40;;
26435;SDS011;15351;52.408;16.826;2023-02-24T09:26:05;13.50;;;3.90;;
26435;SDS011;15351;52.408;16.826;2023-02-24T09:28:36;13.80;;;3.40;;
26435;SDS011;15351;52.408;16.826;2023-02-24T09:31:28;12.00;;;3.70;;
26435;SDS011;15351;52.408;16.826;2023-02-24T09:34:07;12.00;;;3.90;;
26435;SDS011;15351;52.408;16.826;2023-02-24T09:36:36;13.10;;;3.90;;
26435;SDS011;15351;52.408;16.826;2023-02-24T09:39:13;12.40;;;3.30;;
26435;SDS011;15351;52.408;16.826;2023-02-24T09:41:58;11.50;;;2.80;;
26435;SDS011;15351;52.408;16.826;2023-02-24T09:44:35;10.30;;;3.40;;
26435;SDS011;15351;52.408;16.826;2023-02-24T09:47:11;13.10;;;4.50;;
26435;SDS011;15351;52.408;16.826;2023-02-24T09:49:56;12.60;;;3.70;;
26435;SDS011;15351;52.408;16.826;2023-02-24T09:52:39;11.90;;;3.30;;
26435;SDS011;15351;52.408;16.826;2023-02-24T10:01:44;11.70;;;3.40;;
26435;SDS011;15351;52.408;16.826;2023-02-24T10:06:54;12.50;;;3.90;;
26435;SDS011;15351;52.408;16.826;2023-02-24T10:09:33;10.80;;;3.20;;
26435;SDS011;15351;52.408;16.826;2023-02-24T10:12:11;11.50;;;3.80;;
26435;SDS011;15351;52.408;16.826;2023-02-24T10:14:49;12.80;;;4.30;;
26435;SDS011;15351;52.408;16.826;2023-02-24T10:17:42;12.20;;;3.40;;
26435;SDS011;15351;52.408;16.826;2023-02-24T10:20:17;12.50;;;3.90;;
26435;SDS011;15351;52.408;16.826;2023-02-24T10:23:21;12.80;;;3.80;;
26435;SDS011;15351;52.408;16.826;2023-02-24T10:26:07;14.40;;;3.70;;
26435;SDS011;15351;52.408;16.826;2023-02-24T10:34:49;12.50;;;3.60;;
26435;SDS011;15351;52.408;16.826;2023-02-24T10:37:19;12.10;;;3.70;;
26435;SDS011;15351;52.408;16.826;2023-02-24T10:40:09;10.40;;;3.10;;
26435;SDS011;15351;52.408;16.826;2023-02-24T10:42:46;8.80;;;3.40;;
26435;SDS011;15351;52.408;16.826;2023-02-24T10:45:25;9.10;;;3.30;;
26435;SDS011;15351;52.408;16.826;2023-02-24T10:48:05;11.80;;;3.90;;
26435;SDS011;15351;52.408;16.826;2023-02-24T10:50:43;12.00;;;4.40;;
26435;SDS011;15351;52.408;16.826;2023-02-24T10:53:16;10.30;;;4.10;;
26435;SDS011;15351;52.408;16.826;2023-02-24T10:55:56;11.60;;;4.10;;
26435;SDS011;15351;52.408;16.826;2023-02-24T10:58:59;11.60;;;3.70;;
26435;SDS011;15351;52.408;16.826;2023-02-24T11:02:22;9.00;;;3.40;;
26435;SDS011;15351;52.408;16.826;2023-02-24T11:04:59;9.90;;;3.50;;
26435;SDS011;15351;52.408;16.826;2023-02-24T11:11:11;10.20;;;4.00;;
26435;SDS011;15351;52.408;16.826;2023-02-24T11:13:48;10.60;;;3.90;;
26435;SDS011;15351;52.408;16.826;2023-02-24T11:16:55;10.70;;;4.70;;
26435;SDS011;15351;52.408;16.826;2023-02-24T11:19:48;9.30;;;4.10;;
26435;SDS011;15351;52.408;16.826;2023-02-24T11:22:34;10.00;;;4.10;;
26435;SDS011;15351;52.408;16.826;2023-02-24T11:25:07;10.80;;;4.20;;
26435;SDS011;15351;52.408;16.826;2023-02-24T11:27:54;12.80;;;5.10;;
26435;SDS011;15351;52.408;16.826;2023-02-24T11:33:39;12.80;;;4.80;;
26435;SDS011;15351;52.408;16.826;2023-02-24T11:39:49;13.60;;;4.90;;
26435;SDS011;15351;52.408;16.826;2023-02-24T11:42:29;11.40;;;5.40;;
26435;SDS011;15351;52.408;16.826;2023-02-24T11:47:44;9.20;;;5.00;;
26435;SDS011;15351;52.408;16.826;2023-02-24T11:50:22;10.10;;;4.90;;
26435;SDS011;15351;52.408;16.826;2023-02-24T11:52:59;11.60;;;4.80;;
26435;SDS011;15351;52.408;16.826;2023-02-24T11:55:35;11.60;;;4.90;;
26435;SDS011;15351;52.408;16.826;2023-02-24T11:58:45;11.20;;;4.80;;
26435;SDS011;15351;52.408;16.826;2023-02-24T12:01:40;11.70;;;5.30;;
26435;SDS011;15351;52.408;16.826;2023-02-24T12:04:22;9.30;;;4.80;;
26435;SDS011;15351;52.408;16.826;2023-02-24T12:09:40;10.60;;;4.70;;
26435;SDS011;15351;52.408;16.826;2023-02-24T12:12:22;10.90;;;4.60;;
26435;SDS011;15351;52.408;16.826;2023-02-24T12:14:56;12.30;;;4.00;;
26435;SDS011;15351;52.408;16.826;2023-02-24T12:23:47;9.80;;;4.30;;
26435;SDS011;15351;52.408;16.826;2023-02-24T12:29:32;9.80;;;4.10;;
26435;SDS011;15351;52.408;16.826;2023-02-24T12:32:59;9.20;;;3.70;;
26435;SDS011;15351;52.408;16.826;2023-02-24T12:36:11;7.80;;;3.70;;
26435;SDS011;15351;52.408;16.826;2023-02-24T12:41:44;8.20;;;3.60;;
26435;SDS011;15351;52.408;16.826;2023-02-24T12:44:35;7.90;;;3.70;;
26435;SDS011;15351;52.408;16.826;2023-02-24T12:47:11;8.40;;;3.70;;
26435;SDS011;15351;52.408;16.826;2023-02-24T12:53:22;9.80;;;3.90;;
26435;SDS011;15351;52.408;16.826;2023-02-24T12:57:08;11.20;;;4.30;;
26435;SDS011;15351;52.408;16.826;2023-02-24T12:59:46;9.50;;;4.40;;
26435;SDS011;15351;52.408;16.826;2023-02-24T13:05:21;10.10;;;4.80;;
26435;SDS011;15351;52.408;16.826;2023-02-24T13:19:37;11.80;;;4.40;;
26435;SDS011;15351;52.408;16.826;2023-02-24T13:22:15;9.30;;;3.90;;
26435;SDS011;15351;52.408;16.826;2023-02-24T13:27:53;12.00;;;6.00;;
26435;SDS011;15351;52.408;16.826;2023-02-24T13:30:43;12.80;;;6.10;;
26435;SDS011;15351;52.408;16.826;2023-02-24T13:38:49;12.80;;;5.10;;
26435;SDS011;15351;52.408;16.826;2023-02-24T13:45:15;8.00;;;3.90;;
26435;SDS011;15351;52.408;16.826;2023-02-24T13:47:54;9.70;;;4.00;;
26435;SDS011;15351;52.408;16.826;2023-02-24T13:50:30;8.30;;;3.70;;
26435;SDS011;15351;52.408;16.826;2023-02-24T13:53:37;9.10;;;4.00;;
26435;SDS011;15351;52.408;16.826;2023-02-24T14:02:24;11.50;;;5.00;;
26435;SDS011;15351;52.408;16.826;2023-02-24T14:04:56;9.20;;;3.40;;
26435;SDS011;15351;52.408;16.826;2023-02-24T14:07:27;10.20;;;4.50;;
26435;SDS011;15351;52.408;16.826;2023-02-24T14:10:14;13.00;;;4.50;;
26435;SDS011;15351;52.408;16.826;2023-02-24T14:13:32;8.90;;;3.70;;
26435;SDS011;15351;52.408;16.826;2023-02-24T14:16:07;8.80;;;3.60;;
26435;SDS011;15351;52.408;16.826;2023-02-24T14:18:56;8.60;;;3.60;;
26435;SDS011;15351;52.408;16.826;2023-02-24T14:21:30;9.60;;;3.90;;
26435;SDS011;15351;52.408;16.826;2023-02-24T14:24:00;11.10;;;4.20;;
26435;SDS011;15351;52.408;16.826;2023-02-24T14:27:13;10.40;;;4.10;;
26435;SDS011;15351;52.408;16.826;2023-02-24T14:29:50;10.60;;;4.50;;
26435;SDS011;15351;52.408;16.826;2023-02-24T14:32:29;12.20;;;4.60;;
26435;SDS011;15351;52.408;16.826;2023-02-24T14:35:00;11.60;;;4.90;;
26435;SDS011;15351;52.408;16.826;2023-02-24T14:37:31;12.90;;;5.80;;
26435;SDS011;15351;52.408;16.826;2023-02-24T14:40:00;13.10;;;5.80;;
26435;SDS011;15351;52.408;16.826;2023-02-24T14:42:32;12.00;;;5.60;;
26435;SDS011;15351;52.408;16.826;2023-02-24T14:45:22;12.90;;;6.10;;
26435;SDS011;15351;52.408;16.826;2023-02-24T14:48:02;14.20;;;6.40;;
26435;SDS011;15351;52.408;16.826;2023-02-24T14:50:29;11.40;;;5.00;;
26435;SDS011;15351;52.408;16.826;2023-02-24T14:53:02;12.80;;;5.10;;
26435;SDS011;15351;52.408;16.826;2023-02-24T14:55:38;11.50;;;5.30;;
26435;SDS011;15351;52.408;16.826;2023-02-24T15:00:54;13.50;;;6.20;;
26435;SDS011;15351;52.408;16.826;2023-02-24T15:03:50;17.90;;;7.10;;
26435;SDS011;15351;52.408;16.826;2023-02-24T15:06:23;15.30;;;6.50;;
26435;SDS011;15351;52.408;16.826;2023-02-24T15:09:28;12.60;;;5.80;;
26435;SDS011;15351;52.408;16.826;2023-02-24T15:12:09;12.90;;;5.60;;
26435;SDS011;15351;52.408;16.826;2023-02-24T15:14:47;12.40;;;5.70;;
26435;SDS011;15351;52.408;16.826;2023-02-24T15:17:19;11.70;;;5.70;;
26435;SDS011;15351;52.408;16.826;2023-02-24T15:19:52;11.80;;;6.00;;
26435;SDS011;15351;52.408;16.826;2023-02-24T15:22:32;12.80;;;5.60;;
26435;SDS011;15351;52.408;16.826;2023-02-24T15:25:44;12.80;;;5.50;;
26435;SDS011;15351;52.408;16.826;2023-02-24T15:28:27;10.70;;;5.00;;
26435;SDS011;15351;52.408;16.826;2023-02-24T15:31:33;11.70;;;5.20;;
26435;SDS011;15351;52.408;16.826;2023-02-24T15:34:15;16.10;;;5.70;;
26435;SDS011;15351;52.408;16.826;2023-02-24T15:36:53;18.00;;;8.20;;
26435;SDS011;15351;52.408;16.826;2023-02-24T15:39:28;18.00;;;9.30;;
26435;SDS011;15351;52.408;16.826;2023-02-24T15:42:26;19.60;;;10.20;;
26435;SDS011;15351;52.408;16.826;2023-02-24T15:45:05;15.80;;;8.30;;
26435;SDS011;15351;52.408;16.826;2023-02-24T15:47:50;16.80;;;7.20;;
26435;SDS011;15351;52.408;16.826;2023-02-24T15:50:20;16.30;;;8.00;;
26435;SDS011;15351;52.408;16.826;2023-02-24T15:52:51;15.50;;;7.50;;
26435;SDS011;15351;52.408;16.826;2023-02-24T15:55:19;17.00;;;7.80;;
26435;SDS011;15351;52.408;16.826;2023-02-24T15:57:47;15.40;;;6.60;;
26435;SDS011;15351;52.408;16.826;2023-02-24T16:00:26;13.20;;;6.60;;
26435;SDS011;15351;52.408;16.826;2023-02-24T16:02:57;12.80;;;6.40;;
26435;SDS011;15351;52.408;16.826;2023-02-24T16:05:24;13.20;;;6.60;;
26435;SDS011;15351;52.408;16.826;2023-02-24T16:07:53;15.20;;;7.50;;
26435;SDS011;15351;52.408;16.826;2023-02-24T16:10:24;15.30;;;7.70;;
26435;SDS011;15351;52.408;16.826;2023-02-24T16:12:54;16.50;;;9.10;;
26435;SDS011;15351;52.408;16.826;2023-02-24T16:15:25;17.10;;;8.40;;
26435;SDS011;15351;52.408;16.826;2023-02-24T16:17:59;17.70;;;7.70;;
26435;SDS011;15351;52.408;16.826;2023-02-24T16:20:29;18.00;;;9.20;;
26435;SDS011;15351;52.408;16.826;2023-02-24T16:23:04;18.70;;;9.90;;
26435;SDS011;15351;52.408;16.826;2023-02-24T16:25:38;16.50;;;8.60;;
26435;SDS011;15351;52.408;16.826;2023-02-24T16:28:18;18.90;;;9.00;;
26435;SDS011;15351;52.408;16.826;2023-02-24T16:30:50;16.70;;;8.60;;
26435;SDS011;15351;52.408;16.826;2023-02-24T16:33:39;19.70;;;8.10;;
26435;SDS011;15351;52.408;16.826;2023-02-24T16:36:09;19.70;;;8.60;;
26435;SDS011;15351;52.408;16.826;2023-02-24T16:38:51;20.20;;;9.70;;
26435;SDS011;15351;52.408;16.826;2023-02-24T16:41:20;19.30;;;9.50;;
26435;SDS011;15351;52.408;16.826;2023-02-24T16:43:49;16.00;;;9.10;;
26435;SDS011;15351;52.408;16.826;2023-02-24T16:46:19;16.90;;;9.90;;
26435;SDS011;15351;52.408;16.826;2023-02-24T16:48:49;22.90;;;11.20;;
26435;SDS011;15351;52.408;16.826;2023-02-24T16:51:18;16.70;;;8.20;;
26435;SDS011;15351;52.408;16.826;2023-02-24T16:53:50;17.70;;;9.00;;
26435;SDS011;15351;52.408;16.826;2023-02-24T16:56:20;16.60;;;9.40;;
26435;SDS011;15351;52.408;16.826;2023-02-24T16:58:59;19.00;;;10.00;;
26435;SDS011;15351;52.408;16.826;2023-02-24T17:01:27;19.60;;;10.90;;
26435;SDS011;15351;52.408;16.826;2023-02-24T17:04:02;21.30;;;10.30;;
26435;SDS011;15351;52.408;16.826;2023-02-24T17:06:35;20.30;;;10.20;;
26435;SDS011;15351;52.408;16.826;2023-02-24T17:09:07;20.50;;;11.50;;
26435;SDS011;15351;52.408;16.826;2023-02-24T17:11:35;29.70;;;21.60;;
26435;SDS011;15351;52.408;16.826;2023-02-24T17:14:03;66.90;;;46.40;;